< < Back
Terminal Aerodrome Forecast


Current Version              Previous Versions:   1  2  3  4  5  6  7  8  9  

Terminal Aerodrome Forecast

731
FTUS42 KFFC 012320
TAFAHN
TAF
KAHN 012320Z 0200/0224 08006KT P6SM FEW050
     FM020600 09007KT P6SM OVC015
     FM021000 08007KT 5SM -DZ OVC007
     FM022000 09008KT P6SM OVC015
     FM022300 10009KT P6SM BKN025=

Latest METAR

995
SAUS70 KWBC 020400
MTRAHN
METAR KAHN 020351Z AUTO 14005KT 10SM CLR 18/09 A3013 RMK AO2 SLP199
T01830089


USA.gov is the U.S. government's official web portal to all federal, state and local government web resources and services.